Time;durP1;ratioP1;P1;durP2;ratioP2;P2;SDS_P1;SDS_P2;PMS_P1;PMS_P2;Temp;Humidity;BMP_temperature;BMP_pressure;BME280_temperature;BME280_humidity;BME280_pressure;Samples;Min_cycle;Max_cycle;Signal;HPM_P1;HPM_P2
2023/06/05 00:02:03;;;;;;;2.05;1.75;;;;;;;;;;5024055;28;20176;-51
2023/06/05 00:04:29;;;;;;;1.98;1.80;;;;;;;;;;5011385;28;20191;-51
2023/06/05 00:06:56;;;;;;;2.50;1.92;;;;;;;;;;5012665;28;20181;-50
2023/06/05 00:09:22;;;;;;;3.13;2.17;;;;;;;;;;5013558;28;20521;-51
2023/06/05 00:11:48;;;;;;;2.45;1.98;;;;;;;;;;5012288;28;20264;-51
2023/06/05 00:14:15;;;;;;;2.08;1.80;;;;;;;;;;5013522;28;20185;-51
2023/06/05 00:16:40;;;;;;;2.13;1.80;;;;;;;;;;5017692;28;20243;-49
2023/06/05 00:19:06;;;;;;;2.38;1.95;;;;;;;;;;5016358;28;20200;-50
2023/06/05 00:21:32;;;;;;;2.33;1.95;;;;;;;;;;5015781;28;20468;-51
2023/06/05 00:23:58;;;;;;;2.92;2.03;;;;;;;;;;5010870;28;20448;-50
2023/06/05 00:26:24;;;;;;;3.17;2.10;;;;;;;;;;5009695;28;20208;-51
2023/06/05 00:28:50;;;;;;;4.07;1.85;;;;;;;;;;5017297;28;20188;-50
2023/06/05 00:31:18;;;;;;;3.67;2.20;;;;;;;;;;5015762;28;20427;-50
2023/06/05 00:33:44;;;;;;;4.63;1.88;;;;;;;;;;5016510;28;20188;-51
2023/06/05 00:36:11;;;;;;;2.00;1.80;;;;;;;;;;5005301;28;20215;-49
2023/06/05 00:38:37;;;;;;;2.88;1.92;;;;;;;;;;5015252;28;20204;-50
2023/06/05 00:41:03;;;;;;;3.17;2.13;;;;;;;;;;5009660;28;20481;-50
2023/06/05 00:43:29;;;;;;;5.05;2.15;;;;;;;;;;5008659;28;20307;-50
2023/06/05 00:45:58;;;;;;;2.95;1.98;;;;;;;;;;5011349;28;20458;-50
2023/06/05 00:48:25;;;;;;;2.08;1.85;;;;;;;;;;5012650;28;20219;-51
2023/06/05 00:50:50;;;;;;;1.80;1.70;;;;;;;;;;5014705;28;20204;-51
2023/06/05 00:53:16;;;;;;;3.85;1.70;;;;;;;;;;5015205;28;20218;-50
2023/06/05 00:55:43;;;;;;;2.88;1.90;;;;;;;;;;5015229;28;20214;-51
2023/06/05 00:58:08;;;;;;;2.75;1.60;;;;;;;;;;5014711;28;20257;-50
2023/06/05 01:00:36;;;;;;;5.57;1.80;;;;;;;;;;5011821;28;20259;-49
2023/06/05 01:03:02;;;;;;;3.05;1.83;;;;;;;;;;5015761;28;20241;-50
2023/06/05 01:05:28;;;;;;;1.98;1.77;;;;;;;;;;5009096;28;20184;-50
2023/06/05 01:07:54;;;;;;;1.60;1.50;;;;;;;;;;5010904;28;20684;-50
2023/06/05 01:10:20;;;;;;;1.90;1.58;;;;;;;;;;5007347;28;20196;-51
2023/06/05 01:13:04;;;;;;;2.67;1.48;;;;;;;;;;5013802;28;20650;-49
2023/06/05 01:15:31;;;;;;;2.88;1.90;;;;;;;;;;5015583;28;20484;-50
2023/06/05 01:17:58;;;;;;;1.80;1.70;;;;;;;;;;5011896;28;20200;-51
2023/06/05 01:20:31;;;;;;;2.22;1.80;;;;;;;;;;5011674;28;20238;-51
2023/06/05 01:22:58;;;;;;;1.75;1.65;;;;;;;;;;5014664;28;20193;-51
2023/06/05 01:25:25;;;;;;;2.85;1.40;;;;;;;;;;5012891;28;20184;-50
2023/06/05 01:28:15;;;;;;;1.95;1.55;;;;;;;;;;5012285;28;20197;-50
2023/06/05 01:30:46;;;;;;;3.28;1.83;;;;;;;;;;5007337;28;20696;-50
2023/06/05 01:33:17;;;;;;;2.72;1.92;;;;;;;;;;5014774;28;20191;-51
2023/06/05 01:35:44;;;;;;;2.05;1.73;;;;;;;;;;5015973;28;20181;-50
2023/06/05 01:38:11;;;;;;;2.00;1.80;;;;;;;;;;5009219;28;20555;-51
2023/06/05 01:40:37;;;;;;;1.88;1.48;;;;;;;;;;5008224;28;20583;-51
2023/06/05 01:43:05;;;;;;;2.45;1.75;;;;;;;;;;5015771;28;20272;-50
2023/06/05 01:45:31;;;;;;;5.65;1.52;;;;;;;;;;5015172;28;20184;-51
2023/06/05 01:47:57;;;;;;;4.85;1.88;;;;;;;;;;5015813;28;20180;-50
2023/06/05 01:50:24;;;;;;;2.15;1.70;;;;;;;;;;5013088;28;20196;-51
2023/06/05 01:52:52;;;;;;;2.63;1.73;;;;;;;;;;5012469;28;20219;-52
2023/06/05 01:55:20;;;;;;;2.95;2.00;;;;;;;;;;5007860;28;20237;-51
2023/06/05 01:57:46;;;;;;;3.80;1.77;;;;;;;;;;5010864;28;20185;-49
2023/06/05 02:00:15;;;;;;;1.90;1.70;;;;;;;;;;5015833;28;20188;-51
2023/06/05 02:02:42;;;;;;;1.90;1.70;;;;;;;;;;5009950;28;20181;-50
2023/06/05 02:05:09;;;;;;;2.67;1.80;;;;;;;;;;5013189;28;20180;-50
2023/06/05 02:07:40;;;;;;;2.15;1.80;;;;;;;;;;5012244;28;20231;-51
2023/06/05 02:10:07;;;;;;;3.00;1.70;;;;;;;;;;5015272;28;20175;-51
2023/06/05 02:12:33;;;;;;;2.30;1.77;;;;;;;;;;5007974;28;20188;-51
2023/06/05 02:15:01;;;;;;;3.15;1.50;;;;;;;;;;5008515;28;20184;-50
2023/06/05 02:17:28;;;;;;;2.83;1.50;;;;;;;;;;5013198;28;20177;-50
2023/06/05 02:19:54;;;;;;;2.38;1.73;;;;;;;;;;5009233;28;20253;-50
2023/06/05 02:22:23;;;;;;;1.70;1.60;;;;;;;;;;5009451;28;20181;-51
2023/06/05 02:24:49;;;;;;;1.67;1.55;;;;;;;;;;5011385;28;20239;-51
2023/06/05 02:27:16;;;;;;;2.05;1.55;;;;;;;;;;5009399;28;20211;-51
2023/06/05 02:29:42;;;;;;;2.05;1.80;;;;;;;;;;5008776;28;20179;-51
2023/06/05 02:32:07;;;;;;;2.35;1.60;;;;;;;;;;5009081;28;20181;-50
2023/06/05 02:34:33;;;;;;;2.45;1.83;;;;;;;;;;5004820;28;20181;-50
2023/06/05 02:37:01;;;;;;;1.88;1.60;;;;;;;;;;5008093;28;20208;-50
2023/06/05 02:39:27;;;;;;;2.97;1.50;;;;;;;;;;5004723;28;20268;-50
2023/06/05 02:41:55;;;;;;;1.75;1.65;;;;;;;;;;5013063;28;20545;-51
2023/06/05 02:44:21;;;;;;;2.33;1.65;;;;;;;;;;5010091;28;20196;-50
2023/06/05 02:46:47;;;;;;;1.88;1.48;;;;;;;;;;5001564;28;20208;-50
2023/06/05 02:49:13;;;;;;;2.20;1.83;;;;;;;;;;5015892;28;20204;-51
2023/06/05 02:51:39;;;;;;;2.08;1.67;;;;;;;;;;5012897;28;20196;-51
2023/06/05 02:54:06;;;;;;;3.85;1.63;;;;;;;;;;5012066;28;20195;-50
2023/06/05 02:56:32;;;;;;;4.85;1.70;;;;;;;;;;5008203;28;20181;-49
2023/06/05 02:58:58;;;;;;;2.22;1.80;;;;;;;;;;5011785;28;20685;-50
2023/06/05 03:01:25;;;;;;;1.75;1.33;;;;;;;;;;5007866;28;20259;-51
2023/06/05 03:03:52;;;;;;;1.55;1.45;;;;;;;;;;5007329;28;20594;-50
2023/06/05 03:06:18;;;;;;;1.65;1.52;;;;;;;;;;5009824;28;20191;-51
2023/06/05 03:08:45;;;;;;;2.33;1.92;;;;;;;;;;5012777;28;20191;-50
2023/06/05 03:11:11;;;;;;;2.17;1.67;;;;;;;;;;5014035;28;20200;-50
2023/06/05 03:13:36;;;;;;;2.25;1.73;;;;;;;;;;5012275;28;20604;-50
2023/06/05 03:16:03;;;;;;;1.95;1.60;;;;;;;;;;5010289;28;20185;-51
2023/06/05 03:18:29;;;;;;;1.85;1.75;;;;;;;;;;5010211;28;20209;-51
2023/06/05 03:20:56;;;;;;;3.55;1.70;;;;;;;;;;5010068;28;20219;-50
2023/06/05 03:23:25;;;;;;;2.38;1.73;;;;;;;;;;5019287;28;20189;-51
2023/06/05 03:25:51;;;;;;;2.08;1.52;;;;;;;;;;5014686;28;20200;-50
2023/06/05 03:28:18;;;;;;;1.45;1.33;;;;;;;;;;5019609;28;20207;-51
2023/06/05 03:30:44;;;;;;;3.35;1.80;;;;;;;;;;5016556;28;20196;-50
2023/06/05 03:33:10;;;;;;;1.95;1.70;;;;;;;;;;5013150;28;20271;-49
2023/06/05 03:35:36;;;;;;;1.92;1.55;;;;;;;;;;5017109;28;20259;-51
2023/06/05 03:38:02;;;;;;;1.98;1.60;;;;;;;;;;5013802;28;20200;-51
2023/06/05 03:40:28;;;;;;;2.42;2.10;;;;;;;;;;5014484;28;20192;-51
2023/06/05 03:42:55;;;;;;;1.77;1.35;;;;;;;;;;5017154;28;20271;-49
2023/06/05 03:45:22;;;;;;;2.88;2.00;;;;;;;;;;5016829;28;20248;-50
2023/06/05 03:47:48;;;;;;;2.35;2.00;;;;;;;;;;5011271;28;20181;-51
2023/06/05 03:50:15;;;;;;;9.48;2.75;;;;;;;;;;5013358;28;20177;-50
2023/06/05 03:52:41;;;;;;;11.57;2.70;;;;;;;;;;5008047;28;20174;-50
2023/06/05 03:55:10;;;;;;;11.93;2.90;;;;;;;;;;5018632;28;20226;-51
2023/06/05 03:57:37;;;;;;;12.95;2.55;;;;;;;;;;5016621;28;20357;-50
2023/06/05 04:00:05;;;;;;;5.63;2.25;;;;;;;;;;5010670;28;20212;-50
2023/06/05 04:02:34;;;;;;;7.75;2.30;;;;;;;;;;5010662;28;20495;-50
2023/06/05 04:05:01;;;;;;;5.78;2.15;;;;;;;;;;5014588;28;20403;-50
2023/06/05 04:07:26;;;;;;;5.47;1.80;;;;;;;;;;5017311;28;20214;-50
2023/06/05 04:09:52;;;;;;;8.30;2.20;;;;;;;;;;5025930;28;20188;-50
2023/06/05 04:12:19;;;;;;;4.90;2.10;;;;;;;;;;5018866;28;20185;-50
2023/06/05 04:14:45;;;;;;;4.32;2.13;;;;;;;;;;5010672;28;20415;-50
2023/06/05 04:17:13;;;;;;;4.47;2.00;;;;;;;;;;5017203;28;20172;-50
2023/06/05 04:19:39;;;;;;;5.45;2.00;;;;;;;;;;5008602;28;20213;-50
2023/06/05 04:22:05;;;;;;;4.63;1.92;;;;;;;;;;5014704;28;20181;-50
2023/06/05 04:24:31;;;;;;;5.63;2.33;;;;;;;;;;5010395;28;20188;-50
2023/06/05 04:27:00;;;;;;;3.28;1.90;;;;;;;;;;5016278;28;20199;-50
2023/06/05 04:29:26;;;;;;;3.83;2.00;;;;;;;;;;5011953;28;20500;-50
2023/06/05 04:31:52;;;;;;;2.97;1.90;;;;;;;;;;5012825;28;20212;-50
2023/06/05 04:34:19;;;;;;;2.75;1.88;;;;;;;;;;5010479;28;20181;-50
2023/06/05 04:36:45;;;;;;;3.88;2.08;;;;;;;;;;5015550;28;20185;-50
2023/06/05 04:39:14;;;;;;;7.70;2.47;;;;;;;;;;5015404;28;20204;-50
2023/06/05 04:41:44;;;;;;;4.82;1.98;;;;;;;;;;5007810;28;20255;-50
2023/06/05 04:44:10;;;;;;;5.30;2.15;;;;;;;;;;5017234;28;20731;-50
2023/06/05 04:46:38;;;;;;;2.90;1.88;;;;;;;;;;5018485;28;20195;-50
2023/06/05 04:49:04;;;;;;;5.45;2.20;;;;;;;;;;5016535;28;20202;-50
2023/06/05 04:51:31;;;;;;;4.80;2.03;;;;;;;;;;5016019;28;20464;-50
2023/06/05 04:53:57;;;;;;;4.38;2.10;;;;;;;;;;5015716;28;20552;-50
2023/06/05 04:56:23;;;;;;;1.92;1.70;;;;;;;;;;5009274;28;20262;-50
2023/06/05 04:58:50;;;;;;;3.45;1.98;;;;;;;;;;5014021;28;20239;-50
2023/06/05 05:01:16;;;;;;;3.35;1.95;;;;;;;;;;5022721;28;20184;-50
2023/06/05 05:03:42;;;;;;;3.53;2.05;;;;;;;;;;5015525;28;20437;-50
2023/06/05 05:06:10;;;;;;;3.40;1.90;;;;;;;;;;5010185;28;20192;-51
2023/06/05 05:08:36;;;;;;;3.50;1.90;;;;;;;;;;5014345;28;20195;-50
2023/06/05 05:11:02;;;;;;;3.05;1.90;;;;;;;;;;5010535;28;20184;-50
2023/06/05 05:13:28;;;;;;;3.78;2.15;;;;;;;;;;5009185;28;20235;-50
2023/06/05 05:15:54;;;;;;;2.85;2.10;;;;;;;;;;5017031;28;20188;-50
2023/06/05 05:18:20;;;;;;;3.30;2.08;;;;;;;;;;5015561;28;20266;-50
2023/06/05 05:20:46;;;;;;;5.00;2.17;;;;;;;;;;5015226;28;20215;-50
2023/06/05 05:23:12;;;;;;;2.63;1.95;;;;;;;;;;5014418;28;20274;-50
2023/06/05 05:25:38;;;;;;;2.17;1.98;;;;;;;;;;5014641;28;20267;-50
2023/06/05 05:28:04;;;;;;;2.33;1.70;;;;;;;;;;5008886;28;20189;-50
2023/06/05 05:30:30;;;;;;;5.82;2.05;;;;;;;;;;5005882;28;20192;-50
2023/06/05 05:32:56;;;;;;;3.65;2.00;;;;;;;;;;5012727;28;20271;-50
2023/06/05 05:35:22;;;;;;;3.13;2.03;;;;;;;;;;5011515;28;20213;-51
2023/06/05 05:37:48;;;;;;;4.22;2.08;;;;;;;;;;5014555;28;20250;-50
2023/06/05 05:40:14;;;;;;;3.65;2.00;;;;;;;;;;5011484;28;20178;-50
2023/06/05 05:42:41;;;;;;;2.05;1.80;;;;;;;;;;5014666;28;20183;-50
2023/06/05 05:45:08;;;;;;;3.60;2.03;;;;;;;;;;5008782;28;20192;-50
2023/06/05 05:47:34;;;;;;;5.05;1.95;;;;;;;;;;5015181;28;20181;-50
2023/06/05 05:50:00;;;;;;;3.80;2.28;;;;;;;;;;5013058;28;20195;-50
2023/06/05 05:52:26;;;;;;;3.78;2.20;;;;;;;;;;5014041;28;20181;-50
2023/06/05 05:54:52;;;;;;;2.80;1.83;;;;;;;;;;5014632;28;20230;-50
2023/06/05 05:57:18;;;;;;;2.95;1.65;;;;;;;;;;5014142;28;20571;-50
2023/06/05 05:59:47;;;;;;;3.55;2.33;;;;;;;;;;5017002;28;20224;-50
2023/06/05 06:02:13;;;;;;;3.35;2.50;;;;;;;;;;5010793;28;20260;-50
2023/06/05 06:04:40;;;;;;;5.82;2.08;;;;;;;;;;5025983;28;20299;-50
2023/06/05 06:07:06;;;;;;;1.73;1.63;;;;;;;;;;5007815;28;20192;-50
2023/06/05 06:09:32;;;;;;;2.60;1.80;;;;;;;;;;5008955;28;20537;-50
2023/06/05 06:12:02;;;;;;;4.82;1.83;;;;;;;;;;5014606;28;20607;-50
2023/06/05 06:14:28;;;;;;;3.80;2.20;;;;;;;;;;5010595;28;20181;-51
2023/06/05 06:16:55;;;;;;;3.78;1.90;;;;;;;;;;5011388;28;20184;-50
2023/06/05 06:19:23;;;;;;;3.75;2.30;;;;;;;;;;5012598;28;20942;-50
2023/06/05 06:21:51;;;;;;;3.38;1.90;;;;;;;;;;5011715;28;20254;-50
2023/06/05 06:24:19;;;;;;;2.45;1.60;;;;;;;;;;5012851;28;20172;-50
2023/06/05 06:26:45;;;;;;;2.40;1.85;;;;;;;;;;5015994;28;20188;-50
2023/06/05 06:29:12;;;;;;;2.22;1.75;;;;;;;;;;5032591;28;20189;-50
2023/06/05 06:31:38;;;;;;;1.63;1.50;;;;;;;;;;5013264;28;20184;-50
2023/06/05 06:34:04;;;;;;;2.45;1.63;;;;;;;;;;5006459;28;20196;-50
2023/06/05 06:36:30;;;;;;;2.75;1.70;;;;;;;;;;5006583;28;20184;-50
2023/06/05 06:38:56;;;;;;;5.18;1.90;;;;;;;;;;5010877;28;20219;-50
2023/06/05 06:41:22;;;;;;;4.03;1.83;;;;;;;;;;5014260;28;20261;-50
2023/06/05 06:43:48;;;;;;;2.33;1.70;;;;;;;;;;5012960;28;20259;-50
2023/06/05 06:46:14;;;;;;;3.53;1.50;;;;;;;;;;5014164;28;20192;-50
2023/06/05 06:48:40;;;;;;;3.65;1.67;;;;;;;;;;5011452;28;20192;-50
2023/06/05 06:51:06;;;;;;;1.98;1.58;;;;;;;;;;5005170;28;20184;-50
2023/06/05 06:53:32;;;;;;;1.75;1.58;;;;;;;;;;5013990;28;21253;-50
2023/06/05 06:55:58;;;;;;;3.22;1.88;;;;;;;;;;5014128;28;20551;-54
2023/06/05 06:58:24;;;;;;;2.63;1.50;;;;;;;;;;5013750;28;20211;-50
2023/06/05 07:00:50;;;;;;;2.03;1.58;;;;;;;;;;5014156;28;20255;-50
2023/06/05 07:03:16;;;;;;;2.67;1.73;;;;;;;;;;5013118;28;20255;-50
2023/06/05 07:05:42;;;;;;;2.10;1.40;;;;;;;;;;5018623;28;20531;-50
2023/06/05 07:08:08;;;;;;;2.30;1.50;;;;;;;;;;5012651;28;20196;-49
2023/06/05 07:10:34;;;;;;;2.08;1.50;;;;;;;;;;5012932;28;20655;-50
2023/06/05 07:13:00;;;;;;;2.42;1.70;;;;;;;;;;5017920;28;20196;-50
2023/06/05 07:15:26;;;;;;;1.92;1.50;;;;;;;;;;5017960;28;20181;-50
2023/06/05 07:17:52;;;;;;;2.50;1.50;;;;;;;;;;5018046;28;20185;-50
2023/06/05 07:20:18;;;;;;;2.63;1.60;;;;;;;;;;5017955;28;20231;-50
2023/06/05 07:22:47;;;;;;;2.55;1.77;;;;;;;;;;5013570;28;20181;-50
2023/06/05 07:25:15;;;;;;;2.47;1.52;;;;;;;;;;5018017;28;20200;-50
2023/06/05 07:27:43;;;;;;;1.80;1.40;;;;;;;;;;5018074;28;20172;-50
2023/06/05 07:30:10;;;;;;;1.80;1.45;;;;;;;;;;5017543;28;20172;-50
2023/06/05 07:32:35;;;;;;;1.75;1.50;;;;;;;;;;5017186;28;20188;-50
2023/06/05 07:35:02;;;;;;;2.15;1.40;;;;;;;;;;5017440;28;20453;-50
2023/06/05 07:37:28;;;;;;;3.17;1.42;;;;;;;;;;5013448;28;20181;-50
2023/06/05 07:39:54;;;;;;;3.15;1.58;;;;;;;;;;5014419;28;20224;-50
2023/06/05 07:42:20;;;;;;;1.83;1.50;;;;;;;;;;5016601;28;20188;-50
2023/06/05 07:44:46;;;;;;;1.85;1.42;;;;;;;;;;5017705;28;20180;-50
2023/06/05 07:47:12;;;;;;;1.92;1.35;;;;;;;;;;5017796;28;20514;-50
2023/06/05 07:49:38;;;;;;;1.92;1.27;;;;;;;;;;5017538;28;20568;-50
2023/06/05 07:52:04;;;;;;;1.50;1.35;;;;;;;;;;5016735;28;20259;-50
2023/06/05 07:54:30;;;;;;;2.05;1.35;;;;;;;;;;5017483;28;20184;-50
2023/06/05 07:56:57;;;;;;;4.90;1.60;;;;;;;;;;5017071;28;20176;-50
2023/06/05 07:59:27;;;;;;;2.42;1.50;;;;;;;;;;5015300;28;20514;-50
2023/06/05 08:01:53;;;;;;;1.67;1.30;;;;;;;;;;5009249;28;20535;-50
2023/06/05 08:04:19;;;;;;;3.83;1.73;;;;;;;;;;5015899;28;20188;-50
2023/06/05 08:06:45;;;;;;;1.50;1.20;;;;;;;;;;5013995;28;20209;-50
2023/06/05 08:09:12;;;;;;;1.92;1.48;;;;;;;;;;5011509;28;20271;-50
2023/06/05 08:11:38;;;;;;;3.83;1.40;;;;;;;;;;5014962;28;20188;-50
2023/06/05 08:14:08;;;;;;;2.08;1.55;;;;;;;;;;5016102;28;20231;-50
2023/06/05 08:16:35;;;;;;;2.03;1.65;;;;;;;;;;5009109;28;20269;-50
2023/06/05 08:19:01;;;;;;;1.73;1.40;;;;;;;;;;5016300;28;20592;-50
2023/06/05 08:21:27;;;;;;;1.60;1.50;;;;;;;;;;5014943;28;20192;-51
2023/06/05 08:23:53;;;;;;;1.65;1.40;;;;;;;;;;5007281;28;20188;-50
2023/06/05 08:26:20;;;;;;;2.40;1.65;;;;;;;;;;5011168;28;20191;-50
2023/06/05 08:28:46;;;;;;;1.52;1.40;;;;;;;;;;5011354;28;20245;-50
2023/06/05 08:31:12;;;;;;;2.47;1.63;;;;;;;;;;5012340;28;20181;-50
2023/06/05 08:33:38;;;;;;;1.77;1.48;;;;;;;;;;5014943;28;20471;-50
2023/06/05 08:36:05;;;;;;;1.55;1.40;;;;;;;;;;5011026;28;20223;-50
2023/06/05 08:38:31;;;;;;;2.15;1.55;;;;;;;;;;5014667;28;20707;-50
2023/06/05 08:41:01;;;;;;;1.33;1.23;;;;;;;;;;5016072;28;20576;-50
2023/06/05 08:43:28;;;;;;;1.52;1.42;;;;;;;;;;5018484;28;20176;-50
2023/06/05 08:45:55;;;;;;;2.13;1.60;;;;;;;;;;5013552;28;20176;-50
2023/06/05 08:48:21;;;;;;;1.83;1.50;;;;;;;;;;5015793;28;20216;-50
2023/06/05 08:50:48;;;;;;;1.70;1.60;;;;;;;;;;5014758;28;20188;-50
2023/06/05 08:53:16;;;;;;;1.70;1.60;;;;;;;;;;5015638;28;20235;-50
2023/06/05 08:55:43;;;;;;;5.65;1.70;;;;;;;;;;5015581;28;20195;-50
2023/06/05 08:58:10;;;;;;;2.92;1.80;;;;;;;;;;5022106;28;20191;-50
2023/06/05 09:00:36;;;;;;;2.30;1.70;;;;;;;;;;5013858;28;20188;-50
2023/06/05 09:03:02;;;;;;;2.75;1.70;;;;;;;;;;5012344;28;20181;-50
2023/06/05 09:05:28;;;;;;;3.55;2.17;;;;;;;;;;5009840;28;20211;-50
2023/06/05 09:07:54;;;;;;;2.45;1.75;;;;;;;;;;5015770;28;20607;-50
2023/06/05 09:10:28;;;;;;;3.00;2.00;;;;;;;;;;5015332;28;20379;-50
2023/06/05 09:12:55;;;;;;;4.53;1.83;;;;;;;;;;5013471;28;20210;-50
2023/06/05 09:15:23;;;;;;;3.78;2.13;;;;;;;;;;5014626;28;20816;-49
2023/06/05 09:17:48;;;;;;;4.75;1.77;;;;;;;;;;5007054;28;20266;-50
2023/06/05 09:20:24;;;;;;;4.38;2.10;;;;;;;;;;5013638;28;20295;-50
2023/06/05 09:22:50;;;;;;;4.38;1.98;;;;;;;;;;5010456;28;20184;-50
2023/06/05 09:25:16;;;;;;;6.10;2.00;;;;;;;;;;5014019;28;20195;-50
2023/06/05 09:27:42;;;;;;;4.28;2.25;;;;;;;;;;5015231;28;20191;-50
2023/06/05 09:30:08;;;;;;;4.28;2.00;;;;;;;;;;5014588;28;20557;-50
2023/06/05 09:32:35;;;;;;;3.15;2.10;;;;;;;;;;5009957;28;20497;-50
2023/06/05 09:35:05;;;;;;;4.72;2.00;;;;;;;;;;5014557;28;20184;-52
2023/06/05 09:37:37;;;;;;;2.72;2.00;;;;;;;;;;5010651;28;20185;-50
2023/06/05 09:40:04;;;;;;;3.50;1.80;;;;;;;;;;5020060;28;20223;-50
2023/06/05 09:42:33;;;;;;;2.50;2.10;;;;;;;;;;5013615;28;20574;-50
2023/06/05 09:45:00;;;;;;;3.65;2.05;;;;;;;;;;5014434;28;20674;-50
2023/06/05 09:47:26;;;;;;;4.43;1.90;;;;;;;;;;5030185;28;20212;-50
2023/06/05 09:49:52;;;;;;;3.50;2.65;;;;;;;;;;5014715;28;20207;-51
2023/06/05 09:52:18;;;;;;;2.53;2.25;;;;;;;;;;5012331;28;20277;-50
2023/06/05 09:54:44;;;;;;;2.58;2.00;;;;;;;;;;5014915;28;20267;-50
2023/06/05 09:57:11;;;;;;;4.35;2.10;;;;;;;;;;5013564;28;20247;-52
2023/06/05 09:59:51;;;;;;;4.10;2.17;;;;;;;;;;5014665;28;20281;-50
2023/06/05 10:02:19;;;;;;;2.20;2.00;;;;;;;;;;5028173;28;20608;-50
2023/06/05 10:04:49;;;;;;;4.50;2.40;;;;;;;;;;5014041;28;20599;-50
2023/06/05 10:07:16;;;;;;;3.42;2.03;;;;;;;;;;5007964;28;20710;-50
2023/06/05 10:09:43;;;;;;;3.53;2.20;;;;;;;;;;5011121;28;20185;-50
2023/06/05 10:12:10;;;;;;;7.90;2.03;;;;;;;;;;5010116;28;20195;-50
2023/06/05 10:14:36;;;;;;;3.72;2.08;;;;;;;;;;5012386;28;20562;-50
2023/06/05 10:17:03;;;;;;;7.22;2.70;;;;;;;;;;5007876;28;20181;-50
2023/06/05 10:19:31;;;;;;;5.47;2.08;;;;;;;;;;5013857;28;20212;-50
2023/06/05 10:21:57;;;;;;;4.80;1.98;;;;;;;;;;5013317;28;20181;-50
2023/06/05 10:24:25;;;;;;;3.20;1.92;;;;;;;;;;5012700;28;20231;-50
2023/06/05 10:27:24;;;;;;;2.17;1.98;;;;;;;;;;5028605;28;20208;-50
2023/06/05 10:30:09;;;;;;;4.78;2.35;;;;;;;;;;5011181;28;20192;-50
2023/06/05 10:32:44;;;;;;;5.13;2.45;;;;;;;;;;5007292;28;20286;-50
2023/06/05 10:35:17;;;;;;;5.50;2.17;;;;;;;;;;5011639;28;20563;-50
2023/06/05 10:38:03;;;;;;;2.70;1.90;;;;;;;;;;5014897;28;20200;-50
2023/06/05 10:40:29;;;;;;;4.93;2.40;;;;;;;;;;5009732;28;20560;-50
2023/06/05 10:43:16;;;;;;;3.60;2.08;;;;;;;;;;5011255;28;20560;-50
2023/06/05 10:45:42;;;;;;;2.88;2.50;;;;;;;;;;5011686;28;20714;-50
2023/06/05 10:48:08;;;;;;;3.75;2.10;;;;;;;;;;5005715;28;20275;-50
2023/06/05 10:50:34;;;;;;;4.45;2.90;;;;;;;;;;5014989;28;20271;-50
2023/06/05 10:53:00;;;;;;;4.05;2.70;;;;;;;;;;5012230;28;20435;-50
2023/06/05 10:55:26;;;;;;;3.67;2.80;;;;;;;;;;5013134;28;20184;-50
2023/06/05 10:58:02;;;;;;;3.25;2.85;;;;;;;;;;5012097;28;20319;-50
2023/06/05 11:00:31;;;;;;;4.85;2.40;;;;;;;;;;5006525;28;20192;-50
2023/06/05 11:02:57;;;;;;;4.30;2.70;;;;;;;;;;5010917;28;20303;-50
2023/06/05 11:05:23;;;;;;;3.80;2.40;;;;;;;;;;5012583;28;20192;-50
2023/06/05 11:08:09;;;;;;;4.25;2.53;;;;;;;;;;5008185;28;20259;-50
2023/06/05 11:10:35;;;;;;;4.72;2.63;;;;;;;;;;5007344;28;20258;-50
2023/06/05 11:13:02;;;;;;;3.47;2.53;;;;;;;;;;5012242;28;20200;-50
2023/06/05 11:15:36;;;;;;;3.05;2.30;;;;;;;;;;5014215;28;20283;-50
2023/06/05 11:18:20;;;;;;;3.53;2.53;;;;;;;;;;5012232;28;20184;-50
2023/06/05 11:20:46;;;;;;;4.53;2.53;;;;;;;;;;5011931;28;20250;-50
2023/06/05 11:23:12;;;;;;;5.03;2.80;;;;;;;;;;5002321;28;20181;-50
2023/06/05 11:25:38;;;;;;;3.78;2.42;;;;;;;;;;5007001;28;20192;-50
2023/06/05 11:28:07;;;;;;;4.00;2.95;;;;;;;;;;5011199;28;20180;-50
2023/06/05 11:30:34;;;;;;;3.88;3.05;;;;;;;;;;5013616;28;20548;-50
2023/06/05 11:33:12;;;;;;;3.15;2.80;;;;;;;;;;5012786;28;20254;-50
2023/06/05 11:35:38;;;;;;;2.95;2.53;;;;;;;;;;5012879;28;20183;-50
2023/06/05 11:38:11;;;;;;;4.40;2.53;;;;;;;;;;5009746;28;20265;-50
2023/06/05 11:40:37;;;;;;;3.58;2.80;;;;;;;;;;5010324;28;20185;-50
2023/06/05 11:43:04;;;;;;;4.45;2.70;;;;;;;;;;5013084;28;20272;-50
2023/06/05 11:45:30;;;;;;;4.10;2.95;;;;;;;;;;5013488;28;20187;-50
2023/06/05 11:48:06;;;;;;;3.05;2.50;;;;;;;;;;5016935;28;20823;-50
2023/06/05 11:50:32;;;;;;;3.00;2.67;;;;;;;;;;5014143;28;20264;-50
2023/06/05 11:53:08;;;;;;;4.97;2.40;;;;;;;;;;5008199;28;20243;-50
2023/06/05 11:58:25;;;;;;;5.35;2.50;;;;;;;;;;5015572;28;20187;-50
2023/06/05 12:00:51;;;;;;;4.07;2.97;;;;;;;;;;5013167;28;20184;-50
2023/06/05 12:03:18;;;;;;;3.45;2.58;;;;;;;;;;5011782;28;20255;-50
2023/06/05 12:05:44;;;;;;;3.17;2.72;;;;;;;;;;5016435;28;20185;-50
2023/06/05 12:08:26;;;;;;;5.25;3.30;;;;;;;;;;5014343;28;20196;-50
2023/06/05 12:10:53;;;;;;;5.78;3.50;;;;;;;;;;5011974;28;20177;-50
2023/06/05 12:13:19;;;;;;;4.07;3.20;;;;;;;;;;5013406;28;20940;-50
2023/06/05 12:15:56;;;;;;;6.65;3.20;;;;;;;;;;5015404;28;20559;-50
2023/06/05 12:18:31;;;;;;;4.20;3.33;;;;;;;;;;5008370;28;20576;-50
2023/06/05 12:20:57;;;;;;;7.45;3.13;;;;;;;;;;5015773;28;20526;-50
2023/06/05 12:23:22;;;;;;;5.07;3.15;;;;;;;;;;5010088;28;20192;-50
2023/06/05 12:25:58;;;;;;;5.40;3.58;;;;;;;;;;5015421;28;20228;-50
2023/06/05 12:28:26;;;;;;;3.95;3.03;;;;;;;;;;5006980;28;20192;-50
2023/06/05 12:30:52;;;;;;;5.63;3.28;;;;;;;;;;5014686;28;20287;-50
2023/06/05 12:33:19;;;;;;;5.35;3.38;;;;;;;;;;5007713;28;20848;-50
2023/06/05 12:35:45;;;;;;;3.42;2.97;;;;;;;;;;5015784;28;20187;-50
2023/06/05 12:38:11;;;;;;;3.78;3.13;;;;;;;;;;5011469;28;20188;-50
2023/06/05 12:40:37;;;;;;;6.18;3.10;;;;;;;;;;5014181;28;20559;-50
2023/06/05 12:43:03;;;;;;;6.22;2.90;;;;;;;;;;5014290;28;20215;-50
2023/06/05 12:45:30;;;;;;;10.38;3.10;;;;;;;;;;5011716;28;20548;-50
2023/06/05 12:47:56;;;;;;;3.75;3.17;;;;;;;;;;5008918;28;20188;-51
2023/06/05 12:50:22;;;;;;;5.88;3.20;;;;;;;;;;5005732;28;20189;-50
2023/06/05 12:52:48;;;;;;;6.28;3.50;;;;;;;;;;5014786;28;20251;-50
2023/06/05 12:55:14;;;;;;;4.45;3.13;;;;;;;;;;5010060;28;20188;-50
2023/06/05 12:57:40;;;;;;;4.50;3.25;;;;;;;;;;5012652;28;20259;-50
2023/06/05 13:00:12;;;;;;;4.97;3.40;;;;;;;;;;5015291;28;20208;-50
2023/06/05 13:02:38;;;;;;;6.30;3.28;;;;;;;;;;5010006;28;20180;-50
2023/06/05 13:05:04;;;;;;;5.35;3.40;;;;;;;;;;5017244;28;20184;-50
2023/06/05 13:07:31;;;;;;;6.38;3.75;;;;;;;;;;5012166;28;20626;-50
2023/06/05 13:09:57;;;;;;;5.30;3.33;;;;;;;;;;5010256;28;20209;-50
2023/06/05 13:12:23;;;;;;;5.63;3.40;;;;;;;;;;5009994;28;20192;-50
2023/06/05 13:14:49;;;;;;;4.93;3.35;;;;;;;;;;5009932;28;20189;-50
2023/06/05 13:17:15;;;;;;;5.72;3.42;;;;;;;;;;5010563;28;20461;-50
2023/06/05 13:19:41;;;;;;;5.15;3.60;;;;;;;;;;5012850;28;20212;-50
2023/06/05 13:22:07;;;;;;;6.55;3.40;;;;;;;;;;5013696;28;20180;-50
2023/06/05 13:24:33;;;;;;;4.40;3.38;;;;;;;;;;5013219;28;20192;-50
2023/06/05 13:26:59;;;;;;;6.82;3.42;;;;;;;;;;5007798;28;20173;-50
2023/06/05 13:29:25;;;;;;;4.60;3.00;;;;;;;;;;5013387;28;20208;-50
2023/06/05 13:31:51;;;;;;;4.68;3.03;;;;;;;;;;5010145;28;20220;-50
2023/06/05 13:34:17;;;;;;;6.88;3.25;;;;;;;;;;5009703;28;20193;-50
2023/06/05 13:36:43;;;;;;;5.32;3.10;;;;;;;;;;5006371;28;20173;-50
2023/06/05 13:39:09;;;;;;;3.50;3.10;;;;;;;;;;5001900;28;20205;-50
2023/06/05 13:41:35;;;;;;;4.35;3.50;;;;;;;;;;5016129;28;20540;-50
2023/06/05 13:44:01;;;;;;;4.35;2.80;;;;;;;;;;5015219;28;20277;-50
2023/06/05 13:46:27;;;;;;;6.03;3.40;;;;;;;;;;5008402;28;20533;-50
2023/06/05 13:48:54;;;;;;;6.20;3.30;;;;;;;;;;5014645;28;20259;-50
2023/06/05 13:51:20;;;;;;;8.88;3.33;;;;;;;;;;5013402;28;20176;-50
2023/06/05 13:53:46;;;;;;;6.85;3.22;;;;;;;;;;5014933;28;20173;-50
2023/06/05 13:56:12;;;;;;;5.03;3.30;;;;;;;;;;5013689;28;20176;-50
2023/06/05 13:58:38;;;;;;;6.85;3.22;;;;;;;;;;5014491;28;20207;-49
2023/06/05 14:01:04;;;;;;;4.72;3.05;;;;;;;;;;5014069;28;20435;-50
2023/06/05 14:03:30;;;;;;;5.18;3.30;;;;;;;;;;5012694;28;20191;-50
2023/06/05 14:05:56;;;;;;;4.32;3.35;;;;;;;;;;5012387;28;20189;-50
2023/06/05 14:08:22;;;;;;;5.55;3.50;;;;;;;;;;5011346;28;20181;-50
2023/06/05 14:10:48;;;;;;;4.60;3.17;;;;;;;;;;5014414;28;20191;-50
2023/06/05 14:13:17;;;;;;;4.53;2.90;;;;;;;;;;5011652;28;20215;-50
2023/06/05 14:15:43;;;;;;;6.03;3.15;;;;;;;;;;5006847;28;20180;-50
2023/06/05 14:18:09;;;;;;;6.07;3.25;;;;;;;;;;5011432;28;20509;-50
2023/06/05 14:20:35;;;;;;;5.00;3.40;;;;;;;;;;5012552;28;20193;-50
2023/06/05 14:23:02;;;;;;;5.55;3.25;;;;;;;;;;5011826;28;20216;-50
2023/06/05 14:25:28;;;;;;;6.22;3.40;;;;;;;;;;5006752;28;20191;-48
2023/06/05 14:27:57;;;;;;;6.40;3.72;;;;;;;;;;5011032;28;20185;-50
2023/06/05 14:30:23;;;;;;;7.05;3.60;;;;;;;;;;5025822;28;20211;-49
2023/06/05 14:32:49;;;;;;;4.97;3.55;;;;;;;;;;5014557;28;20183;-49
2023/06/05 14:35:16;;;;;;;3.80;3.40;;;;;;;;;;5013031;28;20184;-49
2023/06/05 14:37:42;;;;;;;4.22;3.15;;;;;;;;;;5012767;28;20223;-49
2023/06/05 14:40:09;;;;;;;4.65;3.38;;;;;;;;;;5014405;28;20269;-51
2023/06/05 14:42:35;;;;;;;3.70;3.22;;;;;;;;;;5013563;28;20203;-50
2023/06/05 14:45:01;;;;;;;3.90;2.97;;;;;;;;;;5005516;28;20268;-50
2023/06/05 14:47:26;;;;;;;3.42;3.13;;;;;;;;;;5012013;28;20256;-49